Time;durP1;ratioP1;P1;durP2;ratioP2;P2;SDS_P1;SDS_P2;PMS_P1;PMS_P2;Temp;Humidity;BMP_temperature;BMP_pressure;BME280_temperature;BME280_humidity;BME280_pressure;Samples;Min_cycle;Max_cycle;Signal;HPM_P1;HPM_P2
2022/04/01 00:00:20;;;;;;;1.25;0.63;;;;;;;15.09;30.61;96208.47;5074426;28;20110;-77
2022/04/01 00:02:47;;;;;;;1.45;0.88;;;;;;;15.97;29.24;96200.59;5076683;28;20111;-77
2022/04/01 00:05:13;;;;;;;1.70;0.70;;;;;;;15.20;30.51;96195.25;5078367;28;20032;-77
2022/04/01 00:07:40;;;;;;;0.80;0.70;;;;;;;16.27;28.74;96196.84;5074437;28;20064;-77
2022/04/01 00:10:07;;;;;;;0.70;0.70;;;;;;;16.39;28.60;96187.88;5072855;28;20028;-77
2022/04/01 00:12:38;;;;;;;0.93;0.77;;;;;;;14.96;30.85;96195.69;5074393;28;20040;-77
2022/04/01 00:15:05;;;;;;;0.85;0.60;;;;;;;16.66;28.66;96201.56;5070913;28;20029;-77
2022/04/01 00:17:31;;;;;;;0.80;0.63;;;;;;;17.18;27.32;96194.00;5078701;28;20124;-78
2022/04/01 00:19:57;;;;;;;0.80;0.70;;;;;;;16.79;28.38;96196.91;5080203;28;20498;-77
2022/04/01 00:22:24;;;;;;;0.90;0.90;;;;;;;16.01;28.93;96203.31;5074611;28;20029;-77
2022/04/01 00:24:50;;;;;;;1.42;0.95;;;;;;;14.33;31.77;96200.13;5073571;28;20521;-78
2022/04/01 00:27:16;;;;;;;1.13;0.80;;;;;;;14.29;31.91;96199.34;5074923;28;20055;-77
2022/04/01 00:29:42;;;;;;;1.00;0.90;;;;;;;14.27;31.97;96201.75;5074622;28;20501;-77
2022/04/01 00:32:08;;;;;;;1.33;0.80;;;;;;;16.27;29.17;96202.38;5076488;28;20039;-77
2022/04/01 00:34:36;;;;;;;1.10;0.85;;;;;;;15.55;29.98;96190.34;5074875;28;20063;-78
2022/04/01 00:37:03;;;;;;;3.42;0.80;;;;;;;15.77;30.05;96197.84;5075358;28;20028;-77
2022/04/01 00:39:30;;;;;;;0.80;0.80;;;;;;;15.53;29.84;96188.00;5077226;28;20093;-77
2022/04/01 00:41:58;;;;;;;1.08;1.00;;;;;;;15.71;29.88;96182.91;5075526;28;20035;-77
2022/04/01 00:44:30;;;;;;;0.93;0.88;;;;;;;16.36;28.89;96186.75;5075893;28;20047;-77
2022/04/01 00:47:05;;;;;;;0.80;0.80;;;;;;;15.07;30.29;96188.00;5076314;28;20048;-78
2022/04/01 00:49:31;;;;;;;0.70;0.70;;;;;;;15.51;30.24;96197.94;5074710;28;20056;-78
2022/04/01 00:52:00;;;;;;;0.98;0.88;;;;;;;16.35;28.82;96189.94;5075773;28;20036;-77
2022/04/01 00:54:27;;;;;;;1.27;0.98;;;;;;;15.72;29.53;96190.03;5074484;28;20028;-77
2022/04/01 00:56:54;;;;;;;0.70;0.70;;;;;;;16.78;27.98;96187.81;5073904;28;20043;-77
2022/04/01 00:59:21;;;;;;;2.15;0.70;;;;;;;16.98;27.88;96194.09;5072223;28;20495;-77
2022/04/01 01:01:49;;;;;;;0.80;0.80;;;;;;;16.56;28.23;96193.06;5072382;28;20038;-77
2022/04/01 01:04:17;;;;;;;0.93;0.88;;;;;;;18.32;25.89;96195.34;5073214;28;20082;-77
2022/04/01 01:06:45;;;;;;;1.60;0.77;;;;;;;17.04;27.44;96197.91;5074091;28;20043;-77
2022/04/01 01:09:12;;;;;;;0.77;0.63;;;;;;;17.71;26.71;96195.47;5071118;28;20090;-77
2022/04/01 01:11:40;;;;;;;0.88;0.80;;;;;;;16.64;28.10;96195.69;5075369;28;20032;-77
2022/04/01 01:14:11;;;;;;;1.23;0.80;;;;;;;18.05;26.47;96186.59;5072864;28;20033;-77
2022/04/01 01:16:41;;;;;;;0.77;0.77;;;;;;;16.58;27.96;96185.13;5071809;28;20032;-77
2022/04/01 01:19:18;;;;;;;1.10;1.08;;;;;;;17.05;27.83;96182.06;5071436;28;20024;-77
2022/04/01 01:21:48;;;;;;;1.00;0.95;;;;;;;16.83;27.88;96180.97;5073722;28;20056;-77
2022/04/01 01:24:15;;;;;;;0.95;0.90;;;;;;;17.25;27.31;96175.19;5073990;28;21784;-77
2022/04/01 01:26:45;;;;;;;1.13;0.82;;;;;;;16.61;27.81;96169.63;5072788;28;20024;-76
2022/04/01 01:29:12;;;;;;;1.08;1.00;;;;;;;16.90;27.89;96175.28;5068662;28;20485;-76
2022/04/01 01:31:38;;;;;;;0.95;0.80;;;;;;;16.15;28.62;96165.03;5070997;28;20393;-76
2022/04/01 01:34:05;;;;;;;1.40;1.30;;;;;;;17.03;27.62;96159.53;5073902;28;20036;-76
2022/04/01 01:36:31;;;;;;;0.80;0.80;;;;;;;17.75;26.50;96168.38;5072755;28;20040;-76
2022/04/01 01:38:57;;;;;;;1.08;0.98;;;;;;;15.23;30.65;96168.75;5071350;28;20060;-77
2022/04/01 01:41:25;;;;;;;1.15;1.05;;;;;;;15.48;30.01;96160.03;5072299;28;20067;-76
2022/04/01 01:43:53;;;;;;;2.20;1.00;;;;;;;16.06;29.28;96155.75;5073508;28;20036;-76
2022/04/01 01:46:19;;;;;;;1.77;0.82;;;;;;;16.67;28.15;96156.03;5070468;28;20478;-76
2022/04/01 01:48:45;;;;;;;1.73;1.10;;;;;;;17.76;26.49;96158.84;5074814;28;20031;-76
2022/04/01 01:56:42;;;;;;;1.20;1.10;;;;;;;17.02;27.53;96138.56;5076312;28;20071;-76
2022/04/01 01:59:11;;;;;;;0.73;0.70;;;;;;;15.84;29.39;96142.38;5073389;28;20040;-76
2022/04/01 02:01:42;;;;;;;0.90;0.90;;;;;;;15.23;30.24;96149.41;5077430;28;20024;-76
2022/04/01 02:04:09;;;;;;;2.13;0.90;;;;;;;15.20;30.53;96155.78;5074628;28;20077;-76
2022/04/01 02:06:36;;;;;;;1.27;1.17;;;;;;;14.78;30.80;96150.94;5073414;28;20392;-76
2022/04/01 02:09:02;;;;;;;0.90;0.90;;;;;;;15.39;30.66;96141.22;5073402;28;20157;-76
2022/04/01 02:11:29;;;;;;;1.08;0.98;;;;;;;16.30;29.15;96146.94;5071815;28;20032;-76
2022/04/01 02:13:55;;;;;;;1.63;0.80;;;;;;;15.88;29.07;96137.53;5071834;28;20543;-76
2022/04/01 02:16:21;;;;;;;0.70;0.70;;;;;;;16.16;28.81;96138.94;5072543;28;20044;-76
2022/04/01 02:18:50;;;;;;;1.17;1.00;;;;;;;14.69;31.40;96142.41;5078759;28;20034;-77
2022/04/01 02:21:17;;;;;;;1.23;1.10;;;;;;;15.94;29.43;96142.56;5071103;28;20520;-77
2022/04/01 02:23:46;;;;;;;0.93;0.80;;;;;;;14.85;30.96;96145.31;5075025;28;20444;-77
2022/04/01 02:26:13;;;;;;;1.25;1.15;;;;;;;15.04;30.69;96142.63;5071703;28;20382;-77
2022/04/01 02:28:40;;;;;;;0.98;0.88;;;;;;;17.16;27.83;96132.66;5073295;28;20445;-77
2022/04/01 02:31:08;;;;;;;0.73;0.73;;;;;;;17.40;27.01;96141.56;5074195;28;20028;-78
2022/04/01 02:33:35;;;;;;;0.70;0.70;;;;;;;17.73;26.47;96137.53;5072133;28;20043;-78
2022/04/01 02:36:10;;;;;;;0.65;0.60;;;;;;;16.72;27.78;96131.38;5074373;28;20061;-78
2022/04/01 02:38:38;;;;;;;1.50;0.90;;;;;;;15.88;28.86;96137.53;5069954;28;20062;-78
2022/04/01 02:41:06;;;;;;;0.75;0.60;;;;;;;16.11;28.92;96136.66;5071854;28;20017;-78
2022/04/01 02:43:33;;;;;;;0.60;0.60;;;;;;;17.28;27.54;96132.75;5070229;28;20033;-77
2022/04/01 02:45:59;;;;;;;0.77;0.77;;;;;;;17.24;27.06;96132.06;5069587;28;20040;-78
2022/04/01 02:48:27;;;;;;;0.63;0.60;;;;;;;15.08;30.53;96132.28;5071350;28;20035;-78
2022/04/01 02:50:53;;;;;;;0.75;0.60;;;;;;;16.79;27.80;96127.63;5070849;28;20021;-78
2022/04/01 02:53:19;;;;;;;0.60;0.60;;;;;;;17.46;27.25;96129.47;5072664;28;20099;-78
2022/04/01 02:55:46;;;;;;;0.60;0.60;;;;;;;16.95;27.42;96128.41;5073239;28;20039;-78
2022/04/01 02:58:12;;;;;;;0.82;0.73;;;;;;;15.11;30.45;96127.91;5072985;28;20370;-78
2022/04/01 03:00:39;;;;;;;1.77;1.08;;;;;;;14.52;31.33;96128.47;5077193;28;20098;-78
2022/04/01 03:03:07;;;;;;;0.63;0.63;;;;;;;14.91;31.12;96125.06;5075737;28;20021;-78
2022/04/01 03:05:38;;;;;;;0.60;0.60;;;;;;;14.92;30.82;96123.88;5073368;28;20760;-78
2022/04/01 03:08:06;;;;;;;1.48;0.70;;;;;;;16.23;29.11;96119.41;5076694;28;20032;-78
2022/04/01 03:10:37;;;;;;;0.50;0.50;;;;;;;16.81;28.21;96123.22;5074130;28;20032;-78
2022/04/01 03:13:03;;;;;;;0.60;0.60;;;;;;;16.92;27.75;96120.22;5074324;28;20029;-78
2022/04/01 03:15:32;;;;;;;1.27;0.73;;;;;;;15.99;28.79;96115.16;5076486;28;23021;-78
2022/04/01 03:17:59;;;;;;;0.65;0.50;;;;;;;15.74;29.64;96118.44;5076938;28;20043;-78
2022/04/01 03:20:26;;;;;;;1.40;0.68;;;;;;;14.43;31.54;96119.16;5078134;28;20020;-78
2022/04/01 03:22:52;;;;;;;0.70;0.70;;;;;;;14.67;31.33;96114.44;5079760;28;20066;-78
2022/04/01 03:25:20;;;;;;;0.70;0.70;;;;;;;14.89;31.11;96112.91;5076908;28;20059;-78
2022/04/01 03:27:49;;;;;;;1.15;0.82;;;;;;;13.80;32.67;96118.78;5075992;28;20032;-78
2022/04/01 03:30:17;;;;;;;0.60;0.60;;;;;;;14.39;32.22;96123.94;5076916;28;20033;-79
2022/04/01 03:32:45;;;;;;;2.20;0.70;;;;;;;13.03;34.13;96128.66;5079296;28;20040;-78
2022/04/01 03:35:15;;;;;;;0.70;0.70;;;;;;;15.51;30.57;96109.44;5076470;28;20095;-78
2022/04/01 03:37:41;;;;;;;0.95;0.63;;;;;;;16.70;28.49;96117.16;5075319;28;20032;-78
2022/04/01 03:40:08;;;;;;;2.03;0.70;;;;;;;17.23;27.26;96118.59;5075219;28;20046;-78
2022/04/01 03:42:35;;;;;;;0.80;0.80;;;;;;;15.18;30.19;96120.28;5077390;28;20043;-79
2022/04/01 03:45:06;;;;;;;0.75;0.75;;;;;;;13.66;33.09;96115.44;5074284;28;20044;-79
2022/04/01 03:47:49;;;;;;;0.80;0.70;;;;;;;14.53;32.02;96113.47;5075677;28;20032;-79
2022/04/01 03:50:19;;;;;;;0.70;0.70;;;;;;;15.16;30.69;96114.41;5075236;28;20044;-78
2022/04/01 03:52:47;;;;;;;0.65;0.63;;;;;;;16.02;29.26;96108.00;5076367;28;20032;-79
2022/04/01 03:55:13;;;;;;;0.80;0.80;;;;;;;17.02;27.61;96108.84;5071928;28;20043;-78
2022/04/01 03:57:41;;;;;;;0.55;0.55;;;;;;;14.91;30.82;96116.03;5075455;28;20408;-78
2022/04/01 04:00:13;;;;;;;0.73;0.73;;;;;;;13.87;32.36;96123.44;5073062;28;20021;-78
2022/04/01 04:02:43;;;;;;;0.80;0.70;;;;;;;13.20;33.92;96126.19;5074548;28;20033;-78
2022/04/01 04:05:10;;;;;;;0.90;0.80;;;;;;;15.87;30.01;96124.09;5071569;28;20035;-77
2022/04/01 04:07:39;;;;;;;1.33;0.80;;;;;;;15.33;30.36;96125.56;5075446;28;20101;-78
2022/04/01 04:10:07;;;;;;;0.80;0.80;;;;;;;15.10;30.32;96127.13;5074888;28;20024;-78
2022/04/01 04:12:35;;;;;;;0.80;0.80;;;;;;;14.48;31.40;96138.00;5073202;28;20169;-78
2022/04/01 04:15:02;;;;;;;0.80;0.80;;;;;;;14.45;31.88;96141.59;5072875;28;20444;-78
2022/04/01 04:17:44;;;;;;;1.08;0.95;;;;;;;13.73;32.79;96126.38;5076455;28;20119;-78
2022/04/01 04:20:32;;;;;;;1.13;1.02;;;;;;;15.31;30.46;96116.91;5075525;28;20024;-78
2022/04/01 04:23:08;;;;;;;0.88;0.88;;;;;;;14.45;31.28;96113.97;5072318;28;20048;-78
2022/04/01 04:25:36;;;;;;;0.80;0.80;;;;;;;13.92;32.63;96111.16;5073497;28;20430;-79
2022/04/01 04:28:12;;;;;;;1.10;1.00;;;;;;;14.83;31.38;96106.28;5075871;28;20032;-78
2022/04/01 04:30:48;;;;;;;1.50;1.23;;;;;;;14.26;31.77;96104.38;5072699;28;20043;-78
2022/04/01 04:33:19;;;;;;;1.25;1.10;;;;;;;15.01;31.07;96110.31;5074632;28;20044;-78
2022/04/01 04:35:48;;;;;;;1.30;1.00;;;;;;;14.83;31.35;96120.09;5073766;28;20032;-78
2022/04/01 04:38:16;;;;;;;2.00;1.10;;;;;;;16.11;29.39;96122.81;5075053;28;20103;-78
2022/04/01 04:40:43;;;;;;;1.70;1.38;;;;;;;13.53;33.41;96131.75;5074829;28;20020;-78
2022/04/01 04:43:12;;;;;;;1.58;1.13;;;;;;;14.15;33.14;96127.78;5074220;28;20033;-78
2022/04/01 04:45:38;;;;;;;1.42;1.30;;;;;;;13.91;32.64;96126.94;5071334;28;20050;-78
2022/04/01 04:48:06;;;;;;;1.50;1.35;;;;;;;14.84;31.34;96122.44;5077109;28;20027;-78
2022/04/01 04:50:33;;;;;;;1.70;1.60;;;;;;;14.59;31.85;96135.06;5079856;28;20137;-79
2022/04/01 04:53:01;;;;;;;1.80;1.63;;;;;;;13.84;32.72;96135.28;5082531;28;20025;-79
2022/04/01 04:55:27;;;;;;;1.70;1.60;;;;;;;14.96;31.28;96129.38;5076438;28;20043;-79
2022/04/01 04:57:53;;;;;;;1.65;1.52;;;;;;;14.50;31.48;96144.69;5080533;28;20052;-79
2022/04/01 05:00:21;;;;;;;1.50;1.40;;;;;;;15.18;30.61;96147.13;5079105;28;20035;-78
2022/04/01 05:03:09;;;;;;;2.95;1.40;;;;;;;15.72;29.58;96137.47;5070027;28;20115;-78
2022/04/01 05:05:43;;;;;;;1.92;1.80;;;;;;;15.69;29.90;96135.53;5075863;28;22928;-78
2022/04/01 05:08:42;;;;;;;1.42;1.33;;;;;;;17.08;27.81;96143.13;5074952;28;20028;-78
2022/04/01 05:11:11;;;;;;;1.20;1.02;;;;;;;17.10;27.25;96146.28;5058532;28;20511;-79
2022/04/01 05:13:59;;;;;;;1.42;1.33;;;;;;;15.96;29.07;96143.72;5077888;28;20028;-78
2022/04/01 05:16:49;;;;;;;1.40;1.30;;;;;;;15.57;30.01;96152.75;5074310;28;20082;-78
2022/04/01 05:19:26;;;;;;;1.67;1.57;;;;;;;14.46;31.64;96157.75;5077987;28;20032;-78
2022/04/01 05:22:09;;;;;;;1.15;1.02;;;;;;;14.93;31.15;96155.06;5076298;28;20059;-78
2022/04/01 05:24:48;;;;;;;1.40;1.30;;;;;;;14.12;32.42;96164.50;5073928;28;20056;-78
2022/04/01 05:27:21;;;;;;;1.40;1.30;;;;;;;14.86;31.51;96166.22;5079712;28;20064;-78
2022/04/01 05:29:55;;;;;;;2.10;1.90;;;;;;;15.75;29.71;96157.97;5072909;28;20782;-79
2022/04/01 05:32:28;;;;;;;1.60;1.50;;;;;;;13.77;32.81;96168.47;5078068;28;20056;-80
2022/04/01 05:34:57;;;;;;;1.90;1.70;;;;;;;12.63;35.29;96178.94;5075991;28;20036;-79
2022/04/01 05:37:28;;;;;;;1.95;1.85;;;;;;;13.44;34.32;96180.28;5073628;28;20024;-80
2022/04/01 05:39:55;;;;;;;;;;;;;;;14.66;31.91;96160.59;5081152;28;20046;-79
2022/04/01 05:42:25;;;;;;;4.45;1.67;;;;;;;14.47;32.22;96175.06;5076968;28;20301;-79
2022/04/01 05:44:51;;;;;;;2.10;1.75;;;;;;;15.08;30.93;96170.19;5076359;28;20055;-79
2022/04/01 05:47:20;;;;;;;2.00;1.65;;;;;;;15.31;30.55;96167.44;5083996;28;20068;-79
2022/04/01 05:49:47;;;;;;;1.70;1.60;;;;;;;15.37;30.43;96173.25;5079733;28;20042;-79
2022/04/01 05:52:13;;;;;;;1.40;1.30;;;;;;;14.47;31.41;96170.34;5075444;28;20040;-79
2022/04/01 05:54:41;;;;;;;2.80;2.40;;;;;;;14.23;31.97;96174.22;5078014;28;20498;-79
2022/04/01 05:57:10;;;;;;;2.10;1.90;;;;;;;14.25;32.20;96176.56;5082028;28;20077;-79
2022/04/01 05:59:38;;;;;;;1.60;1.50;;;;;;;15.32;31.08;96168.22;5087340;28;20025;-79
2022/04/01 06:02:28;;;;;;;1.80;1.65;;;;;;;14.87;31.40;96176.06;5088191;28;20043;-79
2022/04/01 06:05:05;;;;;;;2.72;2.03;;;;;;;13.42;34.25;96185.41;5080008;28;20563;-79
2022/04/01 06:07:38;;;;;;;2.42;2.22;;;;;;;14.05;32.84;96183.91;5077946;28;20168;-79
2022/04/01 06:10:11;;;;;;;3.58;2.65;;;;;;;14.79;32.06;96174.63;5078171;28;20040;-79
2022/04/01 06:13:04;;;;;;;2.22;1.85;;;;;;;14.99;31.44;96184.56;5083940;28;20024;-79
2022/04/01 06:15:47;;;;;;;2.60;1.70;;;;;;;16.68;29.22;96177.78;5093199;28;20032;-78
2022/04/01 06:18:50;;;;;;;2.42;1.77;;;;;;;15.81;30.33;96179.19;5081620;28;20481;-79
2022/04/01 06:21:23;;;;;;;1.70;1.60;;;;;;;16.07;30.06;96173.94;5086068;28;20374;-79
2022/04/01 06:24:11;;;;;;;2.38;2.17;;;;;;;15.80;30.09;96171.28;5074098;28;20035;-79
2022/04/01 06:26:46;;;;;;;2.03;1.92;;;;;;;16.56;29.45;96173.69;5078936;28;20393;-79
2022/04/01 06:29:15;;;;;;;2.08;1.88;;;;;;;17.11;28.47;96170.00;5079048;28;20081;-80
2022/04/01 06:31:48;;;;;;;2.40;2.20;;;;;;;16.06;29.43;96173.13;5081130;28;20408;-80
2022/04/01 06:34:30;;;;;;;2.85;2.10;;;;;;;16.23;29.81;96171.22;5082382;28;20064;-80
2022/04/01 06:37:02;;;;;;;2.05;1.95;;;;;;;16.10;30.11;96179.41;5084522;28;20024;-79
2022/04/01 06:39:43;;;;;;;1.67;1.58;;;;;;;16.51;29.70;96176.97;5081167;28;20603;-79
2022/04/01 06:42:19;;;;;;;2.22;1.80;;;;;;;17.03;28.74;96176.16;5087607;28;20032;-79
2022/04/01 06:44:47;;;;;;;1.65;1.55;;;;;;;16.28;29.59;96177.03;5078492;28;20033;-79
2022/04/01 06:47:13;;;;;;;1.73;1.63;;;;;;;16.83;28.88;96180.97;5086695;28;20032;-79
2022/04/01 06:49:39;;;;;;;1.70;1.60;;;;;;;16.00;29.68;96176.84;5093138;28;20016;-79
2022/04/01 06:52:07;;;;;;;1.75;1.65;;;;;;;15.08;30.73;96184.78;5077116;28;20438;-79
2022/04/01 06:54:33;;;;;;;1.50;1.40;;;;;;;15.92;30.15;96178.19;5080422;28;20559;-78
2022/04/01 06:56:59;;;;;;;1.95;1.80;;;;;;;16.77;28.72;96174.41;5082245;28;20039;-79
2022/04/01 06:59:25;;;;;;;2.58;1.98;;;;;;;15.22;31.26;96181.00;5083109;28;20020;-79
2022/04/01 07:01:51;;;;;;;1.90;1.75;;;;;;;15.45;30.87;96183.03;5084021;28;20039;-79
2022/04/01 07:04:18;;;;;;;2.28;1.75;;;;;;;15.83;29.89;96176.75;5080805;28;20031;-79
2022/04/01 07:06:44;;;;;;;2.00;1.88;;;;;;;14.62;32.00;96172.91;5079472;28;20029;-79
2022/04/01 07:09:10;;;;;;;1.98;1.88;;;;;;;13.73;33.50;96176.00;5083392;28;20116;-79
2022/04/01 07:11:36;;;;;;;2.20;2.00;;;;;;;13.20;34.57;96181.28;5080515;28;20060;-79
2022/04/01 07:14:02;;;;;;;1.98;1.83;;;;;;;14.61;32.86;96168.59;5079401;28;20515;-79
2022/04/01 07:16:28;;;;;;;2.50;2.30;;;;;;;16.80;28.80;96171.56;5083156;28;20036;-79
2022/04/01 07:18:55;;;;;;;2.42;2.00;;;;;;;17.81;27.45;96169.41;5083481;28;20059;-79
2022/04/01 07:21:21;;;;;;;2.15;1.95;;;;;;;18.44;26.47;96173.13;5077441;28;20029;-79
2022/04/01 07:23:47;;;;;;;3.08;1.90;;;;;;;17.48;27.54;96179.00;5081631;28;20576;-79
2022/04/01 07:26:13;;;;;;;2.60;2.40;;;;;;;15.69;30.24;96167.94;5083559;28;20490;-79
2022/04/01 07:28:40;;;;;;;2.38;2.17;;;;;;;14.86;31.60;96189.13;5082803;28;20028;-79
2022/04/01 07:33:51;;;;;;;3.22;2.05;;;;;;;16.09;29.61;96182.59;5087066;28;20061;-79
2022/04/01 07:36:20;;;;;;;2.58;2.38;;;;;;;15.59;30.33;96177.25;5079281;28;20086;-79
2022/04/01 07:38:46;;;;;;;2.35;2.15;;;;;;;16.69;28.72;96176.56;5076258;28;20031;-80
2022/04/01 07:41:12;;;;;;;2.63;2.42;;;;;;;16.16;29.79;96172.16;5086978;28;20144;-80
2022/04/01 07:43:39;;;;;;;3.03;2.58;;;;;;;14.95;31.50;96183.84;5076710;28;20052;-80
2022/04/01 07:46:05;;;;;;;2.72;2.45;;;;;;;14.37;32.74;96176.81;5083923;28;20071;-79
2022/04/01 07:48:31;;;;;;;5.10;3.00;;;;;;;14.22;33.22;96188.41;5079133;28;20108;-78
2022/04/01 07:50:57;;;;;;;3.05;2.75;;;;;;;14.73;32.21;96182.59;5079103;28;20037;-78
2022/04/01 07:53:23;;;;;;;2.95;2.65;;;;;;;15.28;31.31;96186.84;5078792;28;20123;-78
2022/04/01 07:55:49;;;;;;;3.55;3.25;;;;;;;16.06;29.97;96189.75;5080333;28;20094;-78
2022/04/01 07:58:18;;;;;;;3.22;2.67;;;;;;;15.94;30.04;96195.16;5081957;28;20108;-78
2022/04/01 08:00:44;;;;;;;2.67;2.42;;;;;;;14.56;31.92;96196.66;5080691;28;20041;-78
2022/04/01 08:03:11;;;;;;;3.80;2.72;;;;;;;13.01;34.17;96199.13;5082699;28;20035;-78
2022/04/01 08:05:37;;;;;;;4.68;3.00;;;;;;;13.22;34.57;96201.72;5082722;28;20102;-78
2022/04/01 08:08:04;;;;;;;3.08;2.78;;;;;;;12.69;35.32;96196.63;5080125;28;20842;-78
2022/04/01 08:10:30;;;;;;;3.17;2.85;;;;;;;13.51;33.60;96202.25;5086722;28;20032;-78
2022/04/01 08:12:56;;;;;;;3.45;3.00;;;;;;;13.02;34.96;96209.72;5094277;28;20053;-78
2022/04/01 08:15:23;;;;;;;2.88;2.67;;;;;;;12.67;35.48;96209.22;5098423;28;20032;-78
2022/04/01 08:17:49;;;;;;;3.70;2.45;;;;;;;14.41;33.15;96199.63;5075744;28;20155;-78
2022/04/01 08:20:17;;;;;;;2.95;2.65;;;;;;;14.94;31.41;96195.28;5076650;28;20033;-78
2022/04/01 08:22:44;;;;;;;3.63;2.88;;;;;;;13.75;33.47;96206.72;5077850;28;20118;-79
2022/04/01 08:25:11;;;;;;;3.13;2.70;;;;;;;15.18;31.56;96194.13;5081542;28;20505;-78
2022/04/01 08:27:37;;;;;;;2.35;2.15;;;;;;;16.86;29.21;96205.06;5079919;28;20491;-78
2022/04/01 08:30:03;;;;;;;3.13;2.00;;;;;;;15.93;29.94;96210.97;5080510;28;20032;-77
2022/04/01 08:32:30;;;;;;;2.35;2.25;;;;;;;16.19;30.24;96201.75;5082576;28;20032;-77
2022/04/01 08:34:57;;;;;;;2.90;2.05;;;;;;;15.13;31.66;96206.44;5079920;28;20032;-77
2022/04/01 08:37:23;;;;;;;2.13;1.92;;;;;;;14.26;32.58;96198.22;5082430;28;20024;-77
2022/04/01 08:39:49;;;;;;;4.43;2.60;;;;;;;14.49;33.02;96201.06;5081220;28;20028;-77
2022/04/01 08:42:16;;;;;;;2.53;2.30;;;;;;;15.24;31.52;96206.25;5081010;28;20046;-77
2022/04/01 08:44:46;;;;;;;2.45;2.25;;;;;;;14.34;32.20;96198.94;5077922;28;20469;-77
2022/04/01 08:47:13;;;;;;;2.35;2.17;;;;;;;15.96;30.32;96199.06;5078777;28;20076;-77
2022/04/01 08:49:39;;;;;;;2.65;2.22;;;;;;;16.18;29.12;96202.16;5079838;28;20033;-77
2022/04/01 08:52:06;;;;;;;2.85;2.65;;;;;;;15.07;31.09;96207.34;5084468;28;20468;-77
2022/04/01 08:54:33;;;;;;;2.85;2.22;;;;;;;16.07;30.37;96198.84;5083188;28;20025;-77
2022/04/01 08:56:59;;;;;;;2.33;2.13;;;;;;;17.97;27.38;96205.44;5090748;28;20036;-77
2022/04/01 08:59:29;;;;;;;5.05;2.75;;;;;;;18.52;26.59;96209.88;5102805;28;20499;-78
2022/04/01 09:02:04;;;;;;;2.35;2.15;;;;;;;17.81;27.63;96203.50;5073151;28;20511;-78
2022/04/01 09:04:30;;;;;;;3.83;3.00;;;;;;;16.26;29.51;96211.91;5074209;28;20072;-78
2022/04/01 09:06:56;;;;;;;3.08;2.75;;;;;;;16.48;29.84;96210.22;5074275;28;20039;-78
2022/04/01 09:09:24;;;;;;;2.88;2.60;;;;;;;16.88;28.85;96222.03;5074177;28;20037;-77
2022/04/01 09:12:07;;;;;;;2.70;2.50;;;;;;;15.64;30.55;96215.47;5075220;28;20379;-77
2022/04/01 09:14:34;;;;;;;3.33;2.83;;;;;;;15.61;31.14;96213.56;5079076;28;20438;-77
2022/04/01 09:17:01;;;;;;;3.55;2.60;;;;;;;16.71;29.38;96214.94;5075466;28;20036;-77
2022/04/01 09:19:32;;;;;;;4.60;2.55;;;;;;;17.29;29.15;96211.94;5079337;28;20378;-77
2022/04/01 09:22:18;;;;;;;7.35;3.70;;;;;;;16.76;29.15;96211.63;5078472;28;20464;-77
2022/04/01 09:24:59;;;;;;;3.35;3.00;;;;;;;17.02;29.54;96211.41;5078124;28;20052;-78
2022/04/01 09:27:44;;;;;;;;;;;;;;;16.37;30.28;96212.44;5074331;28;20039;-77
2022/04/01 09:30:31;;;;;;;2.92;2.58;;;;;;;17.16;28.21;96210.28;5074027;28;19915;-77
2022/04/01 09:33:01;;;;;;;3.72;2.55;;;;;;;16.43;28.81;96213.50;5080117;28;20111;-77
2022/04/01 09:35:32;;;;;;;2.83;2.38;;;;;;;15.46;30.66;96209.47;5086932;28;20054;-77
2022/04/01 09:38:04;;;;;;;2.20;2.10;;;;;;;15.56;30.22;96212.06;5083170;28;20058;-77
2022/04/01 09:40:31;;;;;;;2.63;2.42;;;;;;;15.34;30.81;96221.88;5085582;28;20032;-77
2022/04/01 09:42:58;;;;;;;2.15;1.98;;;;;;;16.05;29.72;96212.31;5080522;28;20063;-77
2022/04/01 09:45:29;;;;;;;2.50;2.30;;;;;;;15.90;29.79;96223.66;5077764;28;20040;-76
2022/04/01 09:48:08;;;;;;;2.97;2.67;;;;;;;15.97;29.78;96213.66;5080456;28;20468;-77
2022/04/01 09:50:41;;;;;;;2.80;2.60;;;;;;;15.07;31.36;96218.38;5079069;28;20060;-77
2022/04/01 09:53:14;;;;;;;2.80;2.60;;;;;;;13.83;32.94;96222.78;5080681;28;20024;-77
2022/04/01 09:55:44;;;;;;;2.92;2.60;;;;;;;14.84;32.10;96226.66;5080021;28;20501;-77
2022/04/01 09:58:12;;;;;;;3.47;2.87;;;;;;;14.48;32.30;96218.84;5081330;28;20043;-77
2022/04/01 10:00:40;;;;;;;2.67;2.47;;;;;;;14.53;31.58;96225.91;5075587;28;20434;-77
2022/04/01 10:03:08;;;;;;;3.17;2.60;;;;;;;16.16;29.45;96223.97;5080284;28;20055;-76
2022/04/01 10:05:39;;;;;;;3.25;2.60;;;;;;;16.46;28.67;96224.53;5079334;28;20232;-76
2022/04/01 10:08:08;;;;;;;3.00;2.70;;;;;;;13.99;32.38;96236.00;5076364;28;20067;-77
2022/04/01 10:10:36;;;;;;;2.75;2.55;;;;;;;15.03;31.14;96223.97;5088321;28;20032;-77
2022/04/01 10:13:11;;;;;;;4.03;3.58;;;;;;;14.37;32.80;96223.75;5091625;28;20073;-77
2022/04/01 10:15:42;;;;;;;3.92;3.25;;;;;;;13.67;33.54;96236.34;5081361;28;20358;-77
2022/04/01 10:18:11;;;;;;;3.25;2.72;;;;;;;13.51;34.04;96235.34;5079973;28;20489;-77
2022/04/01 10:20:38;;;;;;;4.10;2.92;;;;;;;14.81;32.00;96230.22;5078774;28;20032;-77
2022/04/01 10:23:11;;;;;;;2.95;2.67;;;;;;;14.79;31.49;96227.91;5078681;28;20525;-77
2022/04/01 10:25:57;;;;;;;2.60;2.40;;;;;;;15.17;30.92;96231.25;5076754;28;20127;-77
2022/04/01 10:28:26;;;;;;;2.97;2.67;;;;;;;16.00;29.94;96227.44;5078510;28;20520;-76
2022/04/01 10:31:03;;;;;;;3.22;2.92;;;;;;;16.00;30.15;96230.22;5080421;28;20042;-77
2022/04/01 10:33:35;;;;;;;3.35;2.97;;;;;;;15.58;30.30;96236.53;5078177;28;20379;-76
2022/04/01 10:36:15;;;;;;;3.75;3.45;;;;;;;15.65;29.82;96230.88;5081359;28;20071;-76
2022/04/01 10:38:41;;;;;;;4.97;3.83;;;;;;;16.46;29.29;96223.72;5077457;28;20044;-76
2022/04/01 10:41:12;;;;;;;3.58;3.17;;;;;;;14.88;31.08;96236.44;5091068;28;20469;-76
2022/04/01 10:43:40;;;;;;;;;;;;;;;15.00;31.14;96235.09;5087934;28;20060;-77
2022/04/01 10:46:10;;;;;;;2.90;2.30;;;;;;;15.03;31.37;96242.50;5077321;28;19911;-77
2022/04/01 10:51:44;;;;;;;2.88;2.58;;;;;;;16.30;29.18;96243.06;5078599;28;20102;-77
2022/04/01 10:54:12;;;;;;;2.50;2.30;;;;;;;16.57;28.09;96240.94;5078388;28;20032;-77
2022/04/01 10:56:39;;;;;;;4.57;3.63;;;;;;;15.72;29.60;96245.34;5075347;28;20046;-77
2022/04/01 10:59:13;;;;;;;3.75;2.72;;;;;;;14.30;31.95;96245.91;5077277;28;20024;-77
2022/04/01 11:02:00;;;;;;;4.03;3.47;;;;;;;14.29;31.98;96246.28;5078677;28;20025;-78
2022/04/01 11:04:32;;;;;;;4.25;3.05;;;;;;;15.37;30.95;96243.16;5062357;28;20044;-78
2022/04/01 11:07:07;;;;;;;4.20;3.08;;;;;;;14.44;31.72;96251.25;5078564;28;20090;-78
2022/04/01 11:09:46;;;;;;;3.40;2.92;;;;;;;14.24;32.57;96261.31;5074886;28;20024;-77
2022/04/01 11:12:25;;;;;;;4.30;2.70;;;;;;;16.34;29.34;96258.41;5078453;28;20024;-78
2022/04/01 11:14:58;;;;;;;3.42;2.83;;;;;;;15.35;30.51;96259.41;5076397;28;20029;-78
2022/04/01 11:17:34;;;;;;;3.13;2.65;;;;;;;16.40;29.11;96256.72;5079044;28;20097;-78
2022/04/01 11:20:02;;;;;;;3.53;3.17;;;;;;;17.62;26.77;96254.34;5087818;28;20020;-77
2022/04/01 11:22:39;;;;;;;4.78;3.22;;;;;;;17.93;27.01;96260.28;5082953;28;20032;-78
2022/04/01 11:25:07;;;;;;;3.25;2.85;;;;;;;15.26;29.93;96248.09;5077244;28;20036;-78
2022/04/01 11:27:34;;;;;;;3.20;2.75;;;;;;;16.35;28.92;96268.28;5076406;28;20029;-78
2022/04/01 11:30:06;;;;;;;3.15;2.83;;;;;;;15.18;30.41;96258.47;5076004;28;20116;-78
2022/04/01 11:32:35;;;;;;;3.67;2.75;;;;;;;15.82;29.91;96251.91;5078213;28;20211;-78
2022/04/01 11:35:02;;;;;;;3.05;2.72;;;;;;;17.02;28.37;96255.78;5090872;28;20463;-78
2022/04/01 11:37:33;;;;;;;2.97;2.78;;;;;;;15.45;30.04;96254.94;5082834;28;20028;-78
2022/04/01 11:40:17;;;;;;;2.40;2.20;;;;;;;15.94;29.46;96264.34;5080872;28;20055;-78
2022/04/01 11:42:58;;;;;;;3.05;2.70;;;;;;;16.67;28.81;96269.63;5080123;28;20039;-78
2022/04/01 11:45:26;;;;;;;;;;;;;;;17.49;27.29;96261.78;5082459;28;20060;-78
2022/04/01 11:47:52;;;;;;;2.72;2.53;;;;;;;16.49;28.54;96265.22;5081651;28;19916;-78
2022/04/01 11:50:21;;;;;;;2.35;2.17;;;;;;;17.67;27.08;96267.69;5079556;28;20074;-78
2022/04/01 11:52:49;;;;;;;4.13;2.70;;;;;;;16.61;28.51;96268.56;5075340;28;20124;-78
2022/04/01 11:55:18;;;;;;;3.30;3.00;;;;;;;16.46;28.87;96274.38;5084113;28;20067;-78
2022/04/01 11:57:46;;;;;;;2.53;2.30;;;;;;;15.14;30.71;96279.09;5082465;28;20438;-78